createdAt,value
2019-03-26T00:01:42.204Z,7.23
2019-03-26T00:04:11.854Z,6.07
2019-03-26T00:06:41.351Z,7.13
2019-03-26T00:09:11.302Z,4.07
2019-03-26T00:11:40.959Z,6.37
2019-03-26T00:14:10.568Z,7.77
2019-03-26T00:16:40.125Z,4.13
2019-03-26T00:19:09.807Z,5.23
2019-03-26T00:21:39.363Z,4.10
2019-03-26T00:24:09.856Z,5.90
2019-03-26T00:26:39.497Z,9.33
2019-03-26T00:29:09.054Z,6.67
2019-03-26T00:31:38.554Z,8.10
2019-03-26T00:34:18.738Z,2.60
2019-03-26T00:36:39.515Z,3.00
2019-03-26T00:39:09.035Z,4.00
2019-03-26T00:41:38.438Z,2.33
2019-03-26T00:44:08.175Z,12.23
2019-03-26T00:46:37.919Z,5.10
2019-03-26T00:49:07.441Z,3.30
2019-03-26T00:51:37.100Z,4.23
2019-03-26T00:54:06.674Z,4.77
2019-03-26T00:56:36.215Z,8.70
2019-03-26T00:59:05.764Z,6.00
2019-03-26T01:01:35.410Z,2.20
2019-03-26T01:04:04.907Z,3.33
2019-03-26T01:06:34.408Z,6.57
2019-03-26T01:09:05.431Z,13.73
2019-03-26T01:11:36.044Z,8.30
2019-03-26T01:14:05.675Z,9.23
2019-03-26T01:16:35.423Z,6.00
2019-03-26T01:19:05.035Z,5.30
2019-03-26T01:21:34.551Z,9.87
2019-03-26T01:24:04.141Z,8.87
2019-03-26T01:26:33.628Z,9.23
2019-03-26T01:29:03.246Z,11.37
2019-03-26T01:31:32.797Z,8.77
2019-03-26T01:34:02.466Z,10.30
2019-03-26T01:36:32.126Z,7.03
2019-03-26T01:39:02.915Z,15.33
2019-03-26T01:41:32.557Z,7.37
2019-03-26T01:44:02.120Z,7.40
2019-03-26T01:46:31.784Z,8.70
2019-03-26T01:49:01.318Z,13.37
2019-03-26T01:51:30.870Z,9.23
2019-03-26T01:54:00.554Z,9.20
2019-03-26T01:56:30.232Z,8.70
2019-03-26T01:58:59.872Z,11.27
2019-03-26T02:01:30.389Z,15.33
2019-03-26T02:04:00.015Z,16.93
2019-03-26T02:06:29.514Z,10.93
2019-03-26T02:08:59.096Z,15.37
2019-03-26T02:11:28.737Z,14.23
2019-03-26T02:13:58.395Z,15.83
2019-03-26T02:16:29.092Z,15.23
2019-03-26T02:18:58.648Z,17.60
2019-03-26T02:21:28.174Z,18.23
2019-03-26T02:23:57.782Z,20.40
2019-03-26T02:26:28.348Z,22.33
2019-03-26T02:28:57.985Z,20.57
2019-03-26T02:31:28.676Z,23.67
2019-03-26T02:34:01.048Z,19.80
2019-03-26T02:36:30.729Z,29.53
2019-03-26T02:39:00.312Z,24.30
2019-03-26T02:41:29.953Z,24.80
2019-03-26T02:43:59.476Z,26.50
2019-03-26T02:46:29.185Z,27.50
2019-03-26T02:48:58.913Z,24.97
2019-03-26T02:51:28.497Z,30.40
2019-03-26T02:53:59.958Z,22.10
2019-03-26T02:56:30.801Z,24.10
2019-03-26T02:59:00.497Z,23.10
2019-03-26T03:01:30.187Z,20.33
2019-03-26T03:03:59.818Z,20.47
2019-03-26T03:06:29.331Z,25.63
2019-03-26T03:08:58.985Z,22.50
2019-03-26T03:11:29.604Z,26.10
2019-03-26T03:13:59.268Z,24.70
2019-03-26T03:16:28.918Z,23.93
2019-03-26T03:18:58.610Z,26.10
2019-03-26T03:21:28.324Z,25.67
2019-03-26T03:23:57.859Z,30.93
2019-03-26T03:26:29.631Z,30.17
2019-03-26T03:28:59.243Z,25.30
2019-03-26T03:31:29.010Z,28.03
2019-03-26T03:33:58.493Z,39.20
2019-03-26T03:36:28.143Z,33.07
2019-03-26T03:38:57.891Z,35.47
2019-03-26T03:41:27.372Z,28.57
2019-03-26T03:43:56.963Z,40.53
2019-03-26T03:46:26.699Z,36.70
2019-03-26T03:48:56.413Z,39.90
2019-03-26T03:51:26.468Z,33.70
2019-03-26T03:53:56.217Z,35.00
2019-03-26T03:56:26.035Z,27.70
2019-03-26T03:58:55.600Z,36.53
2019-03-26T04:01:25.265Z,31.60
2019-03-26T04:03:54.721Z,33.50
2019-03-26T04:06:24.090Z,30.13
2019-03-26T04:08:53.683Z,30.57
2019-03-26T04:11:24.308Z,32.13
2019-03-26T04:14:00.061Z,35.80
2019-03-26T04:16:29.512Z,39.00
2019-03-26T04:18:58.859Z,31.97
2019-03-26T04:21:30.107Z,32.87
2019-03-26T04:23:59.583Z,41.17
2019-03-26T04:26:29.026Z,40.30
2019-03-26T04:28:58.622Z,35.73
2019-03-26T04:31:28.541Z,35.07
2019-03-26T04:33:58.753Z,35.43
2019-03-26T04:36:28.185Z,38.83
2019-03-26T04:38:57.600Z,38.80
2019-03-26T04:41:27.061Z,50.63
2019-03-26T04:43:56.562Z,45.37
2019-03-26T04:46:26.000Z,50.00
2019-03-26T04:48:55.483Z,43.87
2019-03-26T04:51:24.898Z,58.57
2019-03-26T04:53:54.441Z,46.70
2019-03-26T04:56:23.882Z,42.23
2019-03-26T04:58:53.513Z,52.17
2019-03-26T05:01:22.958Z,42.50
2019-03-26T05:03:52.322Z,54.03
2019-03-26T05:06:21.814Z,50.93
2019-03-26T05:08:51.238Z,47.73
2019-03-26T05:11:20.645Z,46.47
2019-03-26T05:13:50.100Z,43.80
2019-03-26T05:16:20.629Z,51.00
2019-03-26T05:18:50.202Z,47.00
2019-03-26T05:21:19.583Z,45.93
2019-03-26T05:23:51.785Z,39.07
2019-03-26T05:26:20.235Z,43.13
2019-03-26T05:28:49.688Z,42.97
2019-03-26T05:31:19.124Z,33.63
2019-03-26T05:33:48.690Z,46.00
2019-03-26T05:36:18.161Z,38.10
2019-03-26T05:38:47.691Z,40.80
2019-03-26T05:41:17.101Z,39.23
2019-03-26T05:43:46.541Z,33.93
2019-03-26T05:46:16.000Z,37.10
2019-03-26T05:48:45.374Z,35.00
2019-03-26T05:51:14.828Z,36.17
2019-03-26T05:53:44.250Z,37.77
2019-03-26T05:56:13.681Z,27.53
2019-03-26T05:58:43.130Z,32.53
2019-03-26T06:01:12.641Z,27.80
2019-03-26T06:03:42.178Z,27.77
2019-03-26T06:06:11.536Z,30.60
2019-03-26T06:08:40.937Z,29.70
2019-03-26T06:11:10.422Z,29.60
2019-03-26T06:13:39.934Z,31.13
2019-03-26T06:16:09.387Z,26.83
2019-03-26T06:18:38.739Z,28.50
2019-03-26T06:21:08.222Z,32.17
2019-03-26T06:23:44.299Z,29.07
2019-03-26T06:26:14.187Z,29.50
2019-03-26T06:28:43.671Z,41.37
2019-03-26T06:31:13.154Z,26.63
2019-03-26T06:33:42.550Z,29.73
2019-03-26T06:36:12.058Z,23.23
2019-03-26T06:38:41.486Z,37.80
2019-03-26T06:41:10.861Z,21.10
2019-03-26T06:43:40.750Z,28.60
2019-03-26T06:46:10.154Z,25.43
2019-03-26T06:48:39.794Z,23.07
2019-03-26T06:51:09.236Z,31.70
2019-03-26T06:53:38.696Z,25.47
2019-03-26T06:56:08.088Z,22.77
2019-03-26T06:58:38.546Z,24.17
2019-03-26T07:01:07.973Z,24.23
2019-03-26T07:03:39.480Z,29.73
2019-03-26T07:06:08.722Z,24.93
2019-03-26T07:08:38.329Z,24.57
2019-03-26T07:11:07.891Z,23.13
2019-03-26T07:13:38.518Z,23.90
2019-03-26T07:16:08.027Z,24.20
2019-03-26T07:18:39.806Z,27.60
2019-03-26T07:21:10.385Z,24.27
2019-03-26T07:23:39.839Z,33.70
2019-03-26T07:26:09.467Z,27.30
2019-03-26T07:28:38.953Z,26.30
2019-03-26T07:31:08.651Z,21.47
2019-03-26T07:33:38.100Z,31.47
2019-03-26T07:36:07.830Z,32.43
2019-03-26T07:38:37.342Z,27.40
2019-03-26T07:41:07.017Z,27.43
2019-03-26T07:43:36.534Z,21.57
2019-03-26T07:46:05.905Z,27.03
2019-03-26T07:48:36.549Z,32.20
2019-03-26T07:51:07.223Z,27.10
2019-03-26T07:53:36.568Z,25.10
2019-03-26T07:56:07.298Z,29.63
2019-03-26T07:58:36.876Z,25.47
2019-03-26T08:01:06.254Z,27.30
2019-03-26T08:03:35.761Z,22.90
2019-03-26T08:06:09.864Z,25.70
2019-03-26T08:08:40.722Z,26.47
2019-03-26T08:11:10.430Z,25.63
2019-03-26T08:13:41.130Z,19.13
2019-03-26T08:16:10.628Z,20.43
2019-03-26T08:18:40.138Z,24.77
2019-03-26T08:21:12.379Z,21.13
2019-03-26T08:23:41.778Z,18.93
2019-03-26T08:26:11.204Z,26.97
2019-03-26T08:28:40.661Z,24.10
2019-03-26T08:31:10.119Z,25.40
2019-03-26T08:33:39.579Z,23.70
2019-03-26T08:36:08.959Z,19.73
2019-03-26T08:38:38.492Z,21.60
2019-03-26T08:41:09.240Z,17.33
2019-03-26T08:43:41.024Z,22.93
2019-03-26T08:46:10.426Z,23.20
2019-03-26T08:48:39.951Z,21.67
2019-03-26T08:51:10.413Z,17.03
2019-03-26T08:53:39.806Z,21.50
2019-03-26T08:56:09.296Z,23.47
2019-03-26T08:58:40.074Z,18.57
2019-03-26T09:01:09.627Z,20.93
2019-03-26T09:03:39.157Z,23.57
2019-03-26T09:06:09.130Z,25.70
2019-03-26T09:08:38.686Z,23.90
2019-03-26T09:11:08.128Z,21.00
2019-03-26T09:13:37.815Z,15.70
2019-03-26T09:16:07.170Z,27.67
2019-03-26T09:18:36.753Z,23.27
2019-03-26T09:21:06.353Z,23.07
2019-03-26T09:23:35.900Z,31.57
2019-03-26T09:26:05.413Z,23.83
2019-03-26T09:28:34.917Z,21.83
2019-03-26T09:31:04.426Z,23.00
2019-03-26T09:33:33.977Z,20.30
2019-03-26T09:36:03.361Z,25.47
2019-03-26T09:38:38.773Z,20.13
2019-03-26T09:41:05.560Z,27.67
2019-03-26T09:43:34.977Z,17.83
2019-03-26T09:46:04.398Z,21.53
2019-03-26T09:48:33.754Z,19.57
2019-03-26T09:51:03.264Z,14.13
2019-03-26T09:53:32.740Z,18.10
2019-03-26T09:56:02.196Z,20.10
2019-03-26T09:58:31.672Z,20.10
2019-03-26T10:01:01.139Z,21.30
2019-03-26T10:03:30.567Z,16.40
2019-03-26T10:06:06.127Z,19.53
2019-03-26T10:08:35.669Z,18.27
2019-03-26T10:11:05.002Z,17.30
2019-03-26T10:13:36.323Z,18.23
2019-03-26T10:16:05.604Z,23.27
2019-03-26T10:18:34.948Z,12.53
2019-03-26T10:21:04.324Z,15.50
2019-03-26T10:23:33.710Z,25.13
2019-03-26T10:26:03.413Z,18.97
2019-03-26T10:28:32.972Z,17.03
2019-03-26T10:31:02.345Z,17.30
2019-03-26T10:33:31.751Z,22.43
2019-03-26T10:36:01.105Z,14.03
2019-03-26T10:38:30.582Z,22.07
2019-03-26T10:41:00.017Z,11.47
2019-03-26T10:43:29.511Z,11.87
2019-03-26T10:45:59.048Z,10.60
2019-03-26T10:48:31.634Z,10.93
2019-03-26T10:50:59.616Z,14.80
2019-03-26T10:53:29.017Z,10.97
2019-03-26T10:55:58.353Z,16.30
2019-03-26T10:58:27.887Z,12.87
2019-03-26T11:00:57.398Z,13.50
2019-03-26T11:03:26.775Z,10.93
2019-03-26T11:05:56.151Z,16.00
2019-03-26T11:08:25.585Z,17.90
2019-03-26T11:10:55.001Z,17.40
2019-03-26T11:13:24.694Z,16.43
2019-03-26T11:15:54.113Z,18.20
2019-03-26T11:18:24.983Z,14.97
2019-03-26T11:21:02.391Z,13.37
2019-03-26T11:23:31.001Z,12.37
2019-03-26T11:26:00.508Z,14.60
2019-03-26T11:28:29.938Z,17.27
2019-03-26T11:30:59.371Z,19.37
2019-03-26T11:33:28.724Z,12.10
2019-03-26T11:35:58.282Z,15.93
2019-03-26T11:38:27.719Z,19.47
2019-03-26T11:40:57.167Z,16.50
2019-03-26T11:43:26.485Z,12.60
2019-03-26T11:45:55.832Z,20.97
2019-03-26T11:48:25.261Z,23.47
2019-03-26T11:50:54.706Z,13.73
2019-03-26T11:53:24.125Z,15.17
2019-03-26T11:55:53.422Z,15.03
2019-03-26T11:58:30.319Z,16.10
2019-03-26T12:00:53.891Z,12.17
2019-03-26T12:03:24.695Z,23.60
2019-03-26T12:05:55.169Z,13.00
2019-03-26T12:08:24.492Z,17.70
2019-03-26T12:10:53.797Z,12.23
2019-03-26T12:13:23.094Z,16.27
2019-03-26T12:15:52.517Z,17.17
2019-03-26T12:18:21.830Z,15.33
2019-03-26T12:20:51.180Z,12.70
2019-03-26T12:23:20.747Z,15.43
2019-03-26T12:25:50.171Z,16.83
2019-03-26T12:28:19.598Z,9.40
2019-03-26T12:30:49.017Z,18.47
2019-03-26T12:33:18.504Z,12.80
2019-03-26T12:35:47.837Z,14.83
2019-03-26T12:38:19.823Z,14.80
2019-03-26T12:40:49.532Z,16.10
2019-03-26T12:43:18.931Z,15.00
2019-03-26T12:45:48.362Z,14.67
2019-03-26T12:48:19.849Z,11.50
2019-03-26T12:50:49.601Z,15.37
2019-03-26T12:53:19.114Z,12.70
2019-03-26T12:55:48.519Z,16.10
2019-03-26T12:58:30.692Z,13.27
2019-03-26T13:00:49.150Z,13.20
2019-03-26T13:03:18.503Z,15.50
2019-03-26T13:05:47.956Z,15.70
2019-03-26T13:08:17.276Z,11.73
2019-03-26T13:10:53.451Z,11.60
2019-03-26T13:13:17.665Z,11.73
2019-03-26T13:15:47.534Z,16.17
2019-03-26T13:18:16.933Z,14.20
2019-03-26T13:20:47.941Z,13.00
2019-03-26T13:23:17.557Z,11.77
2019-03-26T13:25:47.059Z,14.43
2019-03-26T13:28:16.583Z,16.87
2019-03-26T13:30:46.028Z,10.87
2019-03-26T13:33:15.488Z,11.40
2019-03-26T13:35:44.808Z,8.27
2019-03-26T13:38:14.310Z,9.80
2019-03-26T13:40:43.733Z,13.30
2019-03-26T13:43:13.062Z,14.13
2019-03-26T13:45:42.422Z,13.70
2019-03-26T13:48:11.876Z,14.00
2019-03-26T13:50:41.251Z,11.60
2019-03-26T13:53:10.707Z,12.50
2019-03-26T13:55:40.049Z,16.07
2019-03-26T13:58:09.438Z,13.37
2019-03-26T14:00:39.874Z,10.93
2019-03-26T14:03:09.253Z,16.70
2019-03-26T14:05:38.905Z,15.20
2019-03-26T14:08:08.355Z,17.63
2019-03-26T14:10:41.247Z,14.33
2019-03-26T14:13:09.207Z,20.00
2019-03-26T14:15:38.663Z,9.10
2019-03-26T14:18:08.121Z,13.40
2019-03-26T14:20:37.579Z,9.57
2019-03-26T14:23:07.124Z,9.60
2019-03-26T14:25:36.598Z,8.40
2019-03-26T14:28:06.110Z,8.90
2019-03-26T14:30:45.710Z,5.43
2019-03-26T14:33:15.166Z,7.10
2019-03-26T14:35:44.978Z,9.27
2019-03-26T14:38:14.562Z,12.40
2019-03-26T14:40:54.118Z,12.83
2019-03-26T14:43:15.139Z,13.67
2019-03-26T14:45:44.662Z,11.03
2019-03-26T14:48:14.261Z,9.20
2019-03-26T14:50:43.714Z,12.73
2019-03-26T14:53:15.563Z,16.27
2019-03-26T14:55:44.998Z,12.87
2019-03-26T14:58:19.224Z,12.90
2019-03-26T15:00:48.647Z,13.60
2019-03-26T15:03:18.017Z,12.70
2019-03-26T15:05:47.441Z,12.90
2019-03-26T15:08:17.976Z,10.50
2019-03-26T15:10:47.406Z,10.50
2019-03-26T15:13:16.845Z,8.80
2019-03-26T15:15:46.360Z,12.93
2019-03-26T15:18:15.793Z,8.27
2019-03-26T15:20:45.305Z,12.37
2019-03-26T15:23:17.745Z,6.03
2019-03-26T15:25:47.191Z,12.53
2019-03-26T15:28:16.679Z,5.13
2019-03-26T15:30:46.178Z,6.63
2019-03-26T15:33:15.746Z,10.90
2019-03-26T15:35:45.221Z,6.33
2019-03-26T15:38:14.931Z,5.80
2019-03-26T15:40:44.383Z,8.20
2019-03-26T15:43:14.154Z,8.33
2019-03-26T15:45:43.758Z,8.70
2019-03-26T15:48:13.339Z,10.27
2019-03-26T15:50:43.985Z,5.90
2019-03-26T15:53:13.430Z,6.40
2019-03-26T15:55:43.050Z,6.23
2019-03-26T15:58:12.735Z,9.67
2019-03-26T16:00:42.367Z,11.23
2019-03-26T16:03:13.281Z,8.97
2019-03-26T16:05:42.713Z,9.03
2019-03-26T16:08:12.125Z,4.90
2019-03-26T16:10:41.560Z,6.53
2019-03-26T16:13:11.027Z,8.17
2019-03-26T16:15:44.689Z,7.53
2019-03-26T16:18:11.734Z,13.57
2019-03-26T16:20:41.201Z,8.50
2019-03-26T16:23:10.777Z,9.33
2019-03-26T16:25:40.203Z,7.97
2019-03-26T16:28:10.620Z,10.80
2019-03-26T16:30:39.985Z,10.30
2019-03-26T16:33:09.530Z,10.57
2019-03-26T16:35:40.403Z,8.57
2019-03-26T16:38:10.066Z,8.03
2019-03-26T16:40:40.734Z,9.60
2019-03-26T16:43:10.181Z,10.03
2019-03-26T16:45:39.689Z,18.10
2019-03-26T16:48:10.545Z,9.03
2019-03-26T16:50:40.034Z,10.50
2019-03-26T16:53:09.482Z,9.47
2019-03-26T16:55:38.881Z,7.97
2019-03-26T16:58:08.294Z,7.33
2019-03-26T17:00:37.754Z,9.37
2019-03-26T17:03:07.180Z,9.27
2019-03-26T17:05:36.605Z,10.97
2019-03-26T17:08:05.987Z,12.77
2019-03-26T17:10:35.438Z,15.07
2019-03-26T17:13:04.751Z,13.53
2019-03-26T17:15:34.137Z,13.77
2019-03-26T17:18:07.431Z,11.57
2019-03-26T17:20:36.834Z,13.47
2019-03-26T17:23:06.322Z,15.70
2019-03-26T17:25:35.792Z,13.73
2019-03-26T17:28:05.315Z,15.87
2019-03-26T17:30:37.890Z,17.47
2019-03-26T17:33:07.458Z,25.03
2019-03-26T17:35:36.796Z,14.83
2019-03-26T17:38:06.325Z,24.17
2019-03-26T17:40:36.316Z,17.20
2019-03-26T17:43:07.419Z,18.50
2019-03-26T17:45:37.037Z,15.13
2019-03-26T17:48:09.062Z,23.43
2019-03-26T17:50:38.499Z,16.13
2019-03-26T17:53:11.271Z,16.27
2019-03-26T17:55:40.710Z,17.37
2019-03-26T17:58:10.109Z,15.67
2019-03-26T18:00:45.533Z,20.37
2019-03-26T18:03:25.748Z,20.83
2019-03-26T18:05:46.267Z,16.20
2019-03-26T18:08:15.707Z,26.07
2019-03-26T18:10:45.218Z,17.70
2019-03-26T18:13:14.773Z,16.27
2019-03-26T18:15:44.194Z,17.63
2019-03-26T18:18:13.554Z,23.27
2019-03-26T18:20:43.208Z,26.07
2019-03-26T18:23:12.589Z,20.93
2019-03-26T18:25:42.177Z,18.47
2019-03-26T18:28:11.597Z,23.30
2019-03-26T18:30:42.031Z,34.00
2019-03-26T18:33:11.612Z,24.73
2019-03-26T18:35:42.547Z,31.07
2019-03-26T18:38:14.718Z,99.80
2019-03-26T18:40:43.288Z,31.33
2019-03-26T18:43:14.378Z,34.17
2019-03-26T18:45:44.063Z,16.90
2019-03-26T18:48:13.541Z,24.90
2019-03-26T18:50:42.917Z,17.73
2019-03-26T18:53:12.296Z,29.50
2019-03-26T18:55:41.772Z,10.07
2019-03-26T18:58:11.048Z,9.93
2019-03-26T19:00:40.478Z,33.63
2019-03-26T19:03:10.240Z,24.13
2019-03-26T19:05:39.637Z,22.00
2019-03-26T19:08:09.075Z,18.07
2019-03-26T19:10:38.467Z,18.53
2019-03-26T19:13:18.593Z,20.90
2019-03-26T19:15:39.129Z,18.17
2019-03-26T19:18:08.553Z,15.03
2019-03-26T19:20:38.112Z,24.73
2019-03-26T19:23:07.483Z,20.07
2019-03-26T19:25:37.006Z,16.20
2019-03-26T19:28:06.402Z,12.53
2019-03-26T19:30:35.937Z,18.63
2019-03-26T19:33:08.486Z,20.33
2019-03-26T19:35:37.894Z,13.30
2019-03-26T19:38:07.334Z,16.77
2019-03-26T19:40:36.772Z,11.90
2019-03-26T19:43:11.193Z,17.17
2019-03-26T19:45:37.213Z,18.20
2019-03-26T19:48:06.739Z,16.63
2019-03-26T19:50:36.155Z,16.00
2019-03-26T19:53:05.580Z,11.93
2019-03-26T19:55:35.075Z,14.10
2019-03-26T19:58:04.974Z,11.67
2019-03-26T20:00:34.340Z,13.00
2019-03-26T20:03:03.786Z,17.67
2019-03-26T20:05:35.362Z,18.00
2019-03-26T20:08:04.411Z,12.70
2019-03-26T20:10:33.866Z,11.97
2019-03-26T20:13:03.443Z,10.87
2019-03-26T20:15:35.656Z,17.30
2019-03-26T20:18:08.096Z,16.83
2019-03-26T20:20:37.595Z,25.30
2019-03-26T20:23:07.006Z,17.87
2019-03-26T20:25:36.476Z,14.93
2019-03-26T20:28:06.137Z,11.63
2019-03-26T20:30:35.750Z,16.40
2019-03-26T20:33:05.193Z,15.20
2019-03-26T20:35:34.742Z,18.07
2019-03-26T20:38:04.110Z,16.23
2019-03-26T20:40:33.574Z,9.80
2019-03-26T20:43:03.029Z,22.30
2019-03-26T20:45:32.496Z,25.73
2019-03-26T20:48:01.976Z,17.40
2019-03-26T20:50:31.396Z,15.53
2019-03-26T20:53:00.833Z,14.30
2019-03-26T20:55:34.204Z,13.50
2019-03-26T20:58:03.871Z,8.27
2019-03-26T21:00:40.778Z,13.40
2019-03-26T21:03:10.338Z,15.97
2019-03-26T21:05:39.873Z,12.03
2019-03-26T21:08:09.214Z,13.23
2019-03-26T21:10:38.575Z,14.00
2019-03-26T21:13:09.147Z,15.80
2019-03-26T21:15:38.563Z,12.10
2019-03-26T21:18:07.951Z,10.90
2019-03-26T21:20:37.630Z,9.13
2019-03-26T21:23:07.056Z,12.53
2019-03-26T21:25:37.896Z,17.10
2019-03-26T21:28:07.322Z,15.90
2019-03-26T21:30:36.663Z,10.97
2019-03-26T21:33:08.352Z,13.97
2019-03-26T21:35:37.798Z,16.20
2019-03-26T21:38:07.327Z,16.73
2019-03-26T21:40:36.730Z,8.40
2019-03-26T21:43:06.099Z,13.63
2019-03-26T21:45:36.896Z,11.03
2019-03-26T21:48:06.692Z,17.63
2019-03-26T21:50:36.293Z,14.37
2019-03-26T21:53:05.689Z,12.90
2019-03-26T21:55:35.502Z,10.73
2019-03-26T21:58:05.082Z,12.50
2019-03-26T22:00:34.517Z,13.40
2019-03-26T22:03:03.930Z,18.00
2019-03-26T22:05:33.393Z,11.03
2019-03-26T22:08:02.927Z,15.27
2019-03-26T22:10:32.498Z,12.10
2019-03-26T22:13:03.815Z,11.23
2019-03-26T22:15:33.328Z,11.17
2019-03-26T22:18:02.904Z,10.60
2019-03-26T22:20:32.380Z,13.73
2019-03-26T22:23:01.804Z,7.97
2019-03-26T22:25:31.275Z,8.97
2019-03-26T22:28:00.802Z,13.63
2019-03-26T22:30:30.262Z,10.67
2019-03-26T22:32:59.582Z,12.03
2019-03-26T22:35:32.012Z,13.90
2019-03-26T22:38:01.463Z,14.37
2019-03-26T22:40:30.997Z,21.60
2019-03-26T22:43:00.322Z,13.83
2019-03-26T22:45:30.498Z,12.80
2019-03-26T22:48:00.327Z,12.83
2019-03-26T22:50:29.769Z,14.43
2019-03-26T22:52:59.197Z,20.50
2019-03-26T22:55:28.524Z,14.43
2019-03-26T22:57:57.879Z,13.30
2019-03-26T23:00:29.104Z,13.07
2019-03-26T23:03:00.868Z,11.00
2019-03-26T23:05:33.136Z,13.70
2019-03-26T23:08:02.909Z,15.33
2019-03-26T23:10:32.323Z,13.70
2019-03-26T23:13:04.881Z,12.57
2019-03-26T23:15:34.248Z,17.17
2019-03-26T23:18:03.658Z,11.50
2019-03-26T23:20:33.119Z,15.03
2019-03-26T23:23:02.463Z,17.00
2019-03-26T23:25:31.773Z,14.30
2019-03-26T23:28:02.752Z,17.87
2019-03-26T23:30:32.084Z,12.13
2019-03-26T23:33:01.428Z,13.80
2019-03-26T23:35:33.419Z,13.13
2019-03-26T23:38:04.400Z,13.20
2019-03-26T23:40:33.755Z,12.50
2019-03-26T23:43:03.189Z,17.10
2019-03-26T23:45:35.009Z,16.43
2019-03-26T23:48:04.330Z,20.33
2019-03-26T23:50:33.880Z,11.20
2019-03-26T23:53:03.325Z,10.80
2019-03-26T23:55:32.712Z,19.57
2019-03-26T23:58:02.053Z,16.33
